createdAt,value
2023-05-14T00:01:42.400Z,7.05
2023-05-14T00:06:43.795Z,7.25
2023-05-14T00:11:45.205Z,7.07
2023-05-14T00:16:46.655Z,6.97
2023-05-14T00:21:48.355Z,6.97
2023-05-14T00:26:49.776Z,7.88
2023-05-14T00:31:51.439Z,7.88
2023-05-14T00:36:52.939Z,8.45
2023-05-14T00:41:54.396Z,8.23
2023-05-14T00:46:55.975Z,8.70
2023-05-14T00:51:57.561Z,7.90
2023-05-14T00:56:59.974Z,7.82
2023-05-14T01:02:01.714Z,8.90
2023-05-14T01:07:16.742Z,8.40
2023-05-14T01:12:52.024Z,9.10
2023-05-14T01:18:04.194Z,9.05
2023-05-14T01:23:05.766Z,9.25
2023-05-14T01:28:18.997Z,8.20
2023-05-14T01:33:22.335Z,9.13
2023-05-14T01:38:24.629Z,8.85
2023-05-14T01:43:26.208Z,9.73
2023-05-14T01:48:28.103Z,9.40
2023-05-14T01:53:29.618Z,10.60
2023-05-14T01:58:31.048Z,11.35
2023-05-14T02:03:32.536Z,11.07
2023-05-14T02:08:34.065Z,11.10
2023-05-14T02:13:36.297Z,10.35
2023-05-14T02:18:37.771Z,11.30
2023-05-14T02:23:42.069Z,10.85
2023-05-14T02:28:44.056Z,9.45
2023-05-14T02:33:47.677Z,9.00
2023-05-14T02:38:49.327Z,8.32
2023-05-14T02:43:50.875Z,7.97
2023-05-14T02:48:52.417Z,7.28
2023-05-14T02:53:54.392Z,7.75
2023-05-14T02:58:55.886Z,7.13
2023-05-14T03:03:57.885Z,7.45
2023-05-14T03:08:59.320Z,8.15
2023-05-14T03:14:00.814Z,8.02
2023-05-14T03:19:02.277Z,8.95
2023-05-14T03:24:04.455Z,7.03
2023-05-14T03:29:05.858Z,8.38
2023-05-14T03:34:07.297Z,7.93
2023-05-14T03:39:08.760Z,7.72
2023-05-14T03:44:10.342Z,7.88
2023-05-14T03:49:11.873Z,7.63
2023-05-14T03:54:13.518Z,6.60
2023-05-14T03:59:14.944Z,7.88
2023-05-14T04:04:16.403Z,7.35
2023-05-14T04:09:17.864Z,7.47
2023-05-14T04:14:19.286Z,6.85
2023-05-14T04:19:20.793Z,7.72
2023-05-14T04:24:22.231Z,7.15
2023-05-14T04:29:23.670Z,7.85
2023-05-14T04:34:25.146Z,7.53
2023-05-14T04:39:26.613Z,7.72
2023-05-14T04:44:28.079Z,7.60
2023-05-14T04:49:30.949Z,6.90
2023-05-14T04:54:32.556Z,7.45
2023-05-14T04:59:34.032Z,7.35
2023-05-14T05:04:35.463Z,7.05
2023-05-14T05:09:36.891Z,6.63
2023-05-14T05:14:38.341Z,6.32
2023-05-14T05:19:43.837Z,5.70
2023-05-14T05:24:46.471Z,6.30
2023-05-14T05:29:48.521Z,5.78
2023-05-14T05:34:50.023Z,5.85
2023-05-14T05:39:51.443Z,5.60
2023-05-14T05:44:52.904Z,5.55
2023-05-14T05:49:54.298Z,5.47
2023-05-14T05:54:55.717Z,5.32
2023-05-14T05:59:57.154Z,5.22
2023-05-14T06:04:58.594Z,5.32
2023-05-14T06:10:00.178Z,4.88
2023-05-14T06:15:01.655Z,5.18
2023-05-14T06:20:03.304Z,5.03
2023-05-14T06:25:05.145Z,4.82
2023-05-14T06:30:07.072Z,3.97
2023-05-14T06:35:09.119Z,4.50
2023-05-14T06:40:11.245Z,4.55
2023-05-14T06:45:12.664Z,4.47
2023-05-14T06:50:14.098Z,4.80
2023-05-14T06:55:15.549Z,4.50
2023-05-14T07:00:17.501Z,4.60
2023-05-14T07:05:18.963Z,4.50
2023-05-14T07:10:20.419Z,5.47
2023-05-14T07:15:21.899Z,4.72
2023-05-14T07:20:23.762Z,4.82
2023-05-14T07:25:25.447Z,4.78
2023-05-14T07:30:26.987Z,5.03
2023-05-14T07:35:28.544Z,5.13
2023-05-14T07:40:30.002Z,4.80
2023-05-14T07:45:31.541Z,5.10
2023-05-14T07:50:32.988Z,4.78
2023-05-14T07:55:34.381Z,4.50
2023-05-14T08:00:35.812Z,4.55
2023-05-14T08:05:37.268Z,4.85
2023-05-14T08:10:38.739Z,4.50
2023-05-14T08:15:40.252Z,4.47
2023-05-14T08:20:41.687Z,3.63
2023-05-14T08:25:43.136Z,4.13
2023-05-14T08:35:54.682Z,3.80
2023-05-14T08:40:57.628Z,3.55
2023-05-14T08:46:01.373Z,3.45
2023-05-14T08:51:03.282Z,3.75
2023-05-14T08:56:06.670Z,3.60
2023-05-14T09:01:08.145Z,3.53
2023-05-14T09:06:11.085Z,3.45
2023-05-14T09:11:12.533Z,3.03
2023-05-14T09:16:15.020Z,3.13
2023-05-14T09:21:17.911Z,3.08
2023-05-14T09:26:23.651Z,3.80
2023-05-14T09:31:25.081Z,3.40
2023-05-14T09:36:27.125Z,3.47
2023-05-14T09:41:28.602Z,3.20
2023-05-14T09:46:30.107Z,3.13
2023-05-14T09:57:08.987Z,3.90
2023-05-14T10:02:34.819Z,2.88
2023-05-14T10:07:44.171Z,3.53
2023-05-14T10:12:52.670Z,3.63
2023-05-14T10:18:00.357Z,3.53
2023-05-14T10:23:02.140Z,3.13
2023-05-14T10:28:05.241Z,3.55
2023-05-14T10:33:13.125Z,3.25
2023-05-14T10:38:14.975Z,2.95
2023-05-14T10:43:17.539Z,3.22
2023-05-14T10:48:19.646Z,3.10
2023-05-14T10:53:34.464Z,3.30
2023-05-14T10:58:42.784Z,3.40
2023-05-14T11:03:46.640Z,3.40
2023-05-14T11:08:51.060Z,3.00
2023-05-14T11:13:53.902Z,3.43
2023-05-14T11:19:02.927Z,3.42
2023-05-14T11:24:04.822Z,3.42
2023-05-14T11:29:06.310Z,3.50
2023-05-14T11:34:07.910Z,3.15
2023-05-14T11:39:09.367Z,3.35
2023-05-14T11:44:10.965Z,3.20
2023-05-14T11:49:12.483Z,3.13
2023-05-14T11:54:14.278Z,3.60
2023-05-14T11:59:17.284Z,3.75
2023-05-14T12:04:19.699Z,3.22
2023-05-14T12:09:22.320Z,3.00
2023-05-14T12:14:24.371Z,2.38
2023-05-14T12:19:25.819Z,2.53
2023-05-14T12:24:29.107Z,2.40
2023-05-14T12:29:39.230Z,2.50
2023-05-14T12:34:40.729Z,2.58
2023-05-14T12:44:52.882Z,2.92
2023-05-14T12:49:54.353Z,2.70
2023-05-14T13:00:20.558Z,2.90
2023-05-14T13:10:45.766Z,2.92
2023-05-14T13:31:23.022Z,3.55
2023-05-14T13:47:26.928Z,3.58
2023-05-14T14:02:53.925Z,3.38
2023-05-14T14:08:01.066Z,3.25
2023-05-14T14:18:50.668Z,3.13
2023-05-14T14:29:15.336Z,2.85
2023-05-14T14:34:16.808Z,3.17
2023-05-14T14:39:18.227Z,3.20
2023-05-14T14:49:50.305Z,3.90
2023-05-14T15:00:03.306Z,3.75
2023-05-14T15:21:24.035Z,3.33
2023-05-14T15:26:25.453Z,3.55
2023-05-14T15:31:26.939Z,3.45
2023-05-14T15:36:28.366Z,3.85
2023-05-14T15:41:29.908Z,3.70
2023-05-14T15:46:31.411Z,3.22
2023-05-14T15:51:32.892Z,3.20
2023-05-14T15:56:34.389Z,3.58
2023-05-14T16:01:35.883Z,3.50
2023-05-14T16:06:37.346Z,3.30
2023-05-14T16:11:38.841Z,3.25
2023-05-14T16:16:40.274Z,4.40
2023-05-14T16:21:43.238Z,4.28
2023-05-14T16:37:48.559Z,4.15
2023-05-14T16:48:16.985Z,3.75
2023-05-14T16:53:19.581Z,3.17
2023-05-14T17:03:32.941Z,2.97
2023-05-14T17:08:34.410Z,3.72
2023-05-14T17:13:35.875Z,3.25
2023-05-14T17:18:37.394Z,3.35
2023-05-14T17:23:38.861Z,3.65
2023-05-14T17:28:40.262Z,3.50
2023-05-14T17:33:41.808Z,3.67
2023-05-14T17:38:43.319Z,3.40
2023-05-14T17:43:44.755Z,3.58
2023-05-14T17:48:51.309Z,3.47
2023-05-14T17:53:52.961Z,3.20
2023-05-14T17:58:54.403Z,3.78
2023-05-14T18:03:55.890Z,3.58
2023-05-14T18:08:57.547Z,3.75
2023-05-14T18:14:02.649Z,3.70
2023-05-14T18:19:04.691Z,3.28
2023-05-14T18:24:06.620Z,3.85
2023-05-14T18:29:08.451Z,3.72
2023-05-14T18:34:09.875Z,4.38
2023-05-14T18:39:11.318Z,3.25
2023-05-14T18:44:13.149Z,3.60
2023-05-14T18:49:14.626Z,3.67
2023-05-14T18:54:16.029Z,4.03
2023-05-14T18:59:17.524Z,3.78
2023-05-14T19:04:18.934Z,4.00
2023-05-14T19:14:25.276Z,3.97
2023-05-14T19:19:26.813Z,4.47
2023-05-14T19:24:28.298Z,4.10
2023-05-14T19:29:29.762Z,3.88
2023-05-14T19:34:31.246Z,3.90
2023-05-14T19:39:32.725Z,3.65
2023-05-14T19:44:34.231Z,3.92
2023-05-14T19:49:35.710Z,4.13
2023-05-14T19:54:37.154Z,4.35
2023-05-14T19:59:38.625Z,4.45
2023-05-14T20:04:40.130Z,4.20
2023-05-14T20:09:42.021Z,4.40
2023-05-14T20:14:43.530Z,4.75
2023-05-14T20:19:45.017Z,4.38
2023-05-14T20:24:46.446Z,4.20
2023-05-14T20:29:47.872Z,4.45
2023-05-14T20:34:49.274Z,4.53
2023-05-14T20:39:50.756Z,4.95
2023-05-14T20:44:53.084Z,4.72
2023-05-14T20:50:01.708Z,4.63
2023-05-14T20:55:03.357Z,6.15
2023-05-14T21:00:05.456Z,4.93
2023-05-14T21:05:07.062Z,5.45
2023-05-14T21:10:09.361Z,5.32
2023-05-14T21:15:11.062Z,4.70
2023-05-14T21:25:24.951Z,4.75
2023-05-14T21:35:34.807Z,7.22
2023-05-14T21:40:36.520Z,6.65
2023-05-14T21:56:18.090Z,7.07
2023-05-14T22:01:19.581Z,6.63
2023-05-14T22:06:21.475Z,6.25
2023-05-14T22:11:23.008Z,6.13
2023-05-14T22:16:24.480Z,6.57
2023-05-14T22:21:26.041Z,6.50
2023-05-14T22:26:27.521Z,6.63
2023-05-14T22:31:30.799Z,6.57
2023-05-14T22:36:32.295Z,6.60
2023-05-14T22:41:40.450Z,7.22
2023-05-14T22:46:42.064Z,6.78
2023-05-14T22:51:43.551Z,5.85
2023-05-14T22:56:45.015Z,7.20
2023-05-14T23:01:46.563Z,7.10
2023-05-14T23:06:48.133Z,6.82
2023-05-14T23:11:49.680Z,7.20
2023-05-14T23:16:51.141Z,7.40
2023-05-14T23:21:52.572Z,7.55
2023-05-14T23:26:54.027Z,7.22
2023-05-14T23:31:55.497Z,7.43
2023-05-14T23:36:57.030Z,7.78
2023-05-14T23:41:58.475Z,7.63
2023-05-14T23:46:59.998Z,7.88
2023-05-14T23:52:01.990Z,9.07
2023-05-14T23:57:15.272Z,8.23
